Barcelona, Barcelona El Prat Airport (LEBL)

NameBarcelona El Prat Airport
CityBarcelona
CountrySpain
ICAOLEBL
IATABCN
Altitude12 feet
CoordinatesGoogle Map
Live Air TrafficLiveATC.net
METARLEBL 230730Z VRB02KT 9999 FEW018 25/15 Q1020 NOSIG
2024-07-23 07:30:00 Wind: North (0°) 1.03 m/s - Visibility: > 10000 m - Temperature: 25 °C - Dew point: 15 °C - Humidity: 53.9% - Pressure: 1020 hPa

Sorry, no flights used the airport in this database.